createdAt,value
2018-04-16T00:01:55.308Z,101059.48
2018-04-16T00:04:21.056Z,101058.60
2018-04-16T00:06:46.791Z,101062.25
2018-04-16T00:09:12.540Z,101056.95
2018-04-16T00:11:38.277Z,101055.71
2018-04-16T00:14:04.032Z,101056.56
2018-04-16T00:16:29.764Z,101058.02
2018-04-16T00:18:55.505Z,101060.58
2018-04-16T00:21:21.245Z,101061.94
2018-04-16T00:23:46.981Z,101059.45
2018-04-16T00:26:12.725Z,101062.51
2018-04-16T00:28:38.448Z,101063.97
2018-04-16T00:31:04.183Z,101055.99
2018-04-16T00:33:36.075Z,101057.81
2018-04-16T00:36:07.897Z,101056.08
2018-04-16T00:38:39.824Z,101042.89
2018-04-16T00:41:11.701Z,101043.01
2018-04-16T00:43:43.440Z,101043.11
2018-04-16T00:46:15.289Z,101040.49
2018-04-16T00:48:47.154Z,101036.98
2018-04-16T00:51:19.020Z,101033.05
2018-04-16T00:54:22.948Z,101031.28
2018-04-16T00:56:54.629Z,101027.00
2018-04-16T00:59:26.535Z,101017.32
2018-04-16T01:01:58.582Z,101009.93
2018-04-16T01:04:30.420Z,101014.31
2018-04-16T01:07:02.297Z,101007.33
2018-04-16T01:09:34.099Z,101013.58
2018-04-16T01:12:05.901Z,101009.25
2018-04-16T01:14:37.784Z,101017.27
2018-04-16T01:20:13.623Z,101000.38
2018-04-16T01:22:45.462Z,101012.45
2018-04-16T01:25:17.340Z,101009.00
2018-04-16T01:27:49.078Z,101009.50
2018-04-16T01:30:20.976Z,101015.67
2018-04-16T01:32:52.959Z,101022.66
2018-04-16T01:35:24.787Z,101030.98
2018-04-16T01:37:56.792Z,101034.36
2018-04-16T01:40:28.646Z,101036.19
2018-04-16T01:43:00.452Z,101030.52
2018-04-16T01:45:32.281Z,101028.38
2018-04-16T01:48:04.113Z,101034.95
2018-04-16T01:50:35.969Z,101027.52
2018-04-16T01:53:07.733Z,101007.31
2018-04-16T01:55:39.473Z,101003.93
2018-04-16T02:01:13.128Z,101018.05
2018-04-16T02:03:44.833Z,101018.94
2018-04-16T02:06:16.737Z,101016.75
2018-04-16T02:08:48.572Z,101021.58
2018-04-16T02:11:20.452Z,101020.20
2018-04-16T02:13:52.200Z,101013.23
2018-04-16T02:16:23.964Z,101008.87
2018-04-16T02:18:55.820Z,101020.27
2018-04-16T02:21:27.764Z,101018.47
2018-04-16T02:23:59.540Z,101016.80
2018-04-16T02:26:31.328Z,101016.86
2018-04-16T02:29:03.064Z,101024.73
2018-04-16T02:31:34.939Z,101015.09
2018-04-16T02:34:06.788Z,101016.35
2018-04-16T02:36:38.568Z,101019.33
2018-04-16T02:39:10.312Z,101022.06
2018-04-16T02:41:42.314Z,101039.70
2018-04-16T02:44:14.072Z,101026.70
2018-04-16T02:46:45.964Z,101027.20
2018-04-16T02:49:17.802Z,101036.41
2018-04-16T02:51:49.629Z,101026.34
2018-04-16T02:54:21.487Z,101025.46
2018-04-16T02:56:53.362Z,101032.95
2018-04-16T02:59:25.165Z,101039.55
2018-04-16T03:01:57.118Z,101032.16
2018-04-16T03:04:28.932Z,101019.92
2018-04-16T03:07:00.780Z,101028.36
2018-04-16T03:09:32.515Z,101026.62
2018-04-16T03:12:04.316Z,101025.25
2018-04-16T03:14:36.299Z,101021.70
2018-04-16T03:17:08.128Z,101020.51
2018-04-16T03:19:40.032Z,101030.15
2018-04-16T03:22:12.004Z,101032.39
2018-04-16T03:24:43.746Z,101030.22
2018-04-16T03:27:15.600Z,101017.97
2018-04-16T03:29:47.305Z,101011.44
2018-04-16T03:32:19.116Z,101012.73
2018-04-16T03:34:50.964Z,101013.16
2018-04-16T03:37:22.976Z,101008.66
2018-04-16T03:39:54.725Z,101007.77
2018-04-16T03:42:26.613Z,101001.62
2018-04-16T03:44:58.533Z,101004.23
2018-04-16T03:50:33.970Z,101006.86
2018-04-16T03:53:05.916Z,101012.14
2018-04-16T03:58:27.817Z,101016.53
2018-04-16T04:00:53.556Z,101012.06
2018-04-16T04:03:19.296Z,101019.58
2018-04-16T04:05:45.028Z,101031.39
2018-04-16T04:08:10.768Z,101034.89
2018-04-16T04:10:36.504Z,101044.09
2018-04-16T04:13:02.277Z,101050.25
2018-04-16T04:15:28.026Z,101052.38
2018-04-16T04:17:53.769Z,101044.97
2018-04-16T04:20:19.509Z,101029.64
2018-04-16T04:22:57.758Z,101030.56
2018-04-16T04:25:36.151Z,101031.41
2018-04-16T04:28:14.386Z,101032.29
2018-04-16T04:30:40.168Z,101033.58
2018-04-16T04:33:05.888Z,101043.13
2018-04-16T04:35:31.644Z,101044.00
2018-04-16T04:37:57.393Z,101050.61
2018-04-16T04:40:23.140Z,101058.47
2018-04-16T04:42:48.912Z,101063.38
2018-04-16T04:45:14.690Z,101063.38
2018-04-16T04:47:40.459Z,101068.14
2018-04-16T04:50:06.221Z,101071.19
2018-04-16T04:52:31.957Z,101072.45
2018-04-16T04:54:57.715Z,101079.02
2018-04-16T04:57:23.450Z,101079.84
2018-04-16T04:59:49.205Z,101082.83
2018-04-16T05:02:14.952Z,101086.34
2018-04-16T05:04:40.689Z,101083.75
2018-04-16T05:07:06.433Z,101092.13
2018-04-16T05:09:32.174Z,101093.36
2018-04-16T05:11:57.921Z,101100.38
2018-04-16T05:14:23.676Z,101098.55
2018-04-16T05:16:49.434Z,101103.01
2018-04-16T05:19:15.185Z,101107.77
2018-04-16T05:21:40.942Z,101103.77
2018-04-16T05:24:06.680Z,101103.77
2018-04-16T05:26:32.440Z,101106.81
2018-04-16T05:28:58.196Z,101114.68
2018-04-16T05:31:23.951Z,101119.05
2018-04-16T05:33:49.676Z,101122.02
2018-04-16T05:36:15.452Z,101127.61
2018-04-16T05:38:41.201Z,101118.30
2018-04-16T05:41:06.972Z,101119.30
2018-04-16T05:43:32.717Z,101128.47
2018-04-16T05:45:58.465Z,101134.11
2018-04-16T05:48:24.217Z,101131.38
2018-04-16T05:50:49.968Z,101133.61
2018-04-16T05:53:15.716Z,101135.31
2018-04-16T05:55:41.464Z,101137.48
2018-04-16T05:58:07.225Z,101143.63
2018-04-16T06:00:32.988Z,101138.45
2018-04-16T06:02:58.716Z,101140.14
2018-04-16T06:05:24.477Z,101132.19
2018-04-16T06:07:50.213Z,101139.19
2018-04-16T06:10:15.965Z,101136.97
2018-04-16T06:12:41.721Z,101140.03
2018-04-16T06:15:07.484Z,101138.25
2018-04-16T06:17:33.216Z,101131.63
2018-04-16T06:19:58.973Z,101132.02
2018-04-16T06:22:24.724Z,101128.91
2018-04-16T06:24:50.476Z,101128.48
2018-04-16T06:27:16.327Z,101128.86
2018-04-16T06:29:42.014Z,101128.84
2018-04-16T06:32:07.779Z,101127.95
2018-04-16T06:34:33.516Z,101124.43
2018-04-16T06:36:59.316Z,101123.05
2018-04-16T06:39:24.999Z,101117.73
2018-04-16T06:41:50.744Z,101117.25
2018-04-16T06:44:16.478Z,101113.20
2018-04-16T06:46:42.228Z,101114.38
2018-04-16T06:49:07.984Z,101115.59
2018-04-16T06:51:33.748Z,101123.00
2018-04-16T06:53:59.476Z,101130.36
2018-04-16T06:56:25.228Z,101129.02
2018-04-16T06:58:50.960Z,101138.56
2018-04-16T07:01:16.715Z,101136.66
2018-04-16T07:03:42.465Z,101134.41
2018-04-16T07:06:08.204Z,101138.25
2018-04-16T07:08:33.949Z,101132.02
2018-04-16T07:10:59.692Z,101135.36
2018-04-16T07:13:25.455Z,101138.34
2018-04-16T07:15:51.265Z,101140.61
2018-04-16T07:18:16.974Z,101132.67
2018-04-16T07:20:42.708Z,101133.38
2018-04-16T07:23:08.480Z,101136.59
2018-04-16T07:25:34.225Z,101143.17
2018-04-16T07:27:59.981Z,101140.74
2018-04-16T07:30:25.720Z,101140.89
2018-04-16T07:32:51.470Z,101149.09
2018-04-16T07:35:17.187Z,101145.70
2018-04-16T07:37:42.939Z,101145.64
2018-04-16T07:40:08.680Z,101148.52
2018-04-16T07:42:34.442Z,101160.47
2018-04-16T07:45:00.181Z,101152.31
2018-04-16T07:47:25.918Z,101160.13
2018-04-16T07:49:51.669Z,101172.75
2018-04-16T07:52:17.421Z,101172.66
2018-04-16T07:54:43.156Z,101173.38
2018-04-16T07:57:08.892Z,101169.34
2018-04-16T07:59:34.629Z,101179.11
2018-04-16T08:02:00.383Z,101178.61
2018-04-16T08:04:33.287Z,101179.78
2018-04-16T08:06:59.047Z,101175.44
2018-04-16T08:09:24.788Z,101183.72
2018-04-16T08:11:50.548Z,101188.25
2018-04-16T08:14:16.292Z,101190.88
2018-04-16T08:16:42.057Z,101184.09
2018-04-16T08:19:07.820Z,101179.86
2018-04-16T08:21:33.551Z,101182.73
2018-04-16T08:23:59.284Z,101190.82
2018-04-16T08:26:25.016Z,101191.74
2018-04-16T08:28:50.752Z,101191.16
2018-04-16T08:31:16.499Z,101193.06
2018-04-16T08:33:42.245Z,101190.13
2018-04-16T08:36:07.983Z,101196.45
2018-04-16T08:38:33.736Z,101198.55
2018-04-16T08:40:59.465Z,101194.17
2018-04-16T08:43:25.221Z,101194.56
2018-04-16T08:45:57.981Z,101196.31
2018-04-16T08:48:23.760Z,101196.59
2018-04-16T08:50:49.488Z,101199.89
2018-04-16T08:53:15.233Z,101204.73
2018-04-16T08:55:40.973Z,101209.31
2018-04-16T08:58:06.724Z,101218.45
2018-04-16T09:00:32.513Z,101219.30
2018-04-16T09:02:58.220Z,101211.66
2018-04-16T09:05:23.953Z,101215.79
2018-04-16T09:07:49.691Z,101216.98
2018-04-16T09:10:15.424Z,101222.80
2018-04-16T09:12:41.177Z,101223.07
2018-04-16T09:15:06.926Z,101230.95
2018-04-16T09:17:32.679Z,101227.63
2018-04-16T09:19:58.436Z,101229.89
2018-04-16T09:22:24.196Z,101238.22
2018-04-16T09:24:49.938Z,101235.59
2018-04-16T09:27:15.692Z,101238.38
2018-04-16T09:29:41.469Z,101233.86
2018-04-16T09:32:07.229Z,101236.09
2018-04-16T09:34:32.960Z,101233.17
2018-04-16T09:36:58.703Z,101228.41
2018-04-16T09:39:24.440Z,101229.55
2018-04-16T09:41:50.171Z,101232.98
2018-04-16T09:44:15.924Z,101231.78
2018-04-16T09:46:41.660Z,101229.24
2018-04-16T09:49:07.419Z,101234.82
2018-04-16T09:51:33.165Z,101223.48
2018-04-16T09:53:58.913Z,101227.23
2018-04-16T09:56:24.640Z,101224.16
2018-04-16T09:58:50.396Z,101229.69
2018-04-16T10:01:21.124Z,101226.30
2018-04-16T10:03:46.872Z,101225.36
2018-04-16T10:06:12.613Z,101223.22
2018-04-16T10:08:38.363Z,101225.43
2018-04-16T10:11:04.099Z,101221.27
2018-04-16T10:13:29.857Z,101227.26
2018-04-16T10:15:55.604Z,101222.31
2018-04-16T10:18:21.346Z,101222.90
2018-04-16T10:20:47.072Z,101229.41
2018-04-16T10:23:12.826Z,101222.27
2018-04-16T10:25:38.561Z,101223.34
2018-04-16T10:28:04.313Z,101221.81
2018-04-16T10:30:30.058Z,101215.33
2018-04-16T10:32:55.796Z,101202.23
2018-04-16T10:35:21.533Z,101205.06
2018-04-16T10:37:47.289Z,101197.88
2018-04-16T10:40:13.034Z,101195.80
2018-04-16T10:42:38.788Z,101196.13
2018-04-16T10:45:04.546Z,101191.63
2018-04-16T10:47:30.297Z,101195.50
2018-04-16T10:49:56.047Z,101189.36
2018-04-16T10:52:21.781Z,101195.86
2018-04-16T10:54:47.528Z,101190.13
2018-04-16T10:57:13.277Z,101196.74
2018-04-16T10:59:39.026Z,101195.08
2018-04-16T11:02:04.779Z,101195.20
2018-04-16T11:04:30.536Z,101198.81
2018-04-16T11:06:56.266Z,101198.83
2018-04-16T11:09:22.004Z,101191.70
2018-04-16T11:11:47.749Z,101196.78
2018-04-16T11:14:13.511Z,101192.62
2018-04-16T11:16:39.276Z,101194.09
2018-04-16T11:19:05.028Z,101206.13
2018-04-16T11:21:30.768Z,101207.59
2018-04-16T11:23:56.518Z,101202.98
2018-04-16T11:26:22.321Z,101207.30
2018-04-16T11:28:48.012Z,101211.41
2018-04-16T11:31:13.744Z,101212.59
2018-04-16T11:33:39.500Z,101213.42
2018-04-16T11:36:05.232Z,101214.06
2018-04-16T11:38:30.998Z,101214.92
2018-04-16T11:40:56.752Z,101214.91
2018-04-16T11:43:22.504Z,101201.78
2018-04-16T11:45:48.240Z,101204.61
2018-04-16T11:48:13.997Z,101211.79
2018-04-16T11:50:39.745Z,101214.75
2018-04-16T11:53:05.497Z,101211.70
2018-04-16T11:55:31.260Z,101212.55
2018-04-16T11:57:56.991Z,101209.53
2018-04-16T12:00:22.757Z,101221.96
2018-04-16T12:02:48.492Z,101223.45
2018-04-16T12:05:14.268Z,101224.18
2018-04-16T12:07:40.012Z,101226.60
2018-04-16T12:10:05.760Z,101230.37
2018-04-16T12:12:31.505Z,101223.92
2018-04-16T12:14:57.263Z,101230.28
2018-04-16T12:17:23.008Z,101238.38
2018-04-16T12:19:48.756Z,101235.24
2018-04-16T12:22:14.494Z,101233.25
2018-04-16T12:24:40.253Z,101235.11
2018-04-16T12:27:05.985Z,101240.15
2018-04-16T12:29:31.735Z,101232.77
2018-04-16T12:31:57.477Z,101234.46
2018-04-16T12:34:23.237Z,101232.31
2018-04-16T12:36:48.975Z,101227.74
2018-04-16T12:39:14.719Z,101227.31
2018-04-16T12:41:40.456Z,101220.07
2018-04-16T12:44:06.219Z,101212.89
2018-04-16T12:46:31.961Z,101218.14
2018-04-16T12:48:57.713Z,101220.24
2018-04-16T12:51:23.456Z,101229.41
2018-04-16T12:53:49.188Z,101225.15
2018-04-16T12:56:14.933Z,101223.48
2018-04-16T12:58:40.693Z,101220.16
2018-04-16T13:01:06.444Z,101218.82
2018-04-16T13:03:32.184Z,101219.19
2018-04-16T13:05:57.929Z,101220.41
2018-04-16T13:08:23.696Z,101216.06
2018-04-16T13:10:49.444Z,101218.30
2018-04-16T13:13:15.180Z,101218.81
2018-04-16T13:15:40.927Z,101216.22
2018-04-16T13:18:06.680Z,101209.08
2018-04-16T13:20:32.433Z,101215.69
2018-04-16T13:22:58.164Z,101213.85
2018-04-16T13:25:23.910Z,101213.01
2018-04-16T13:27:49.644Z,101217.20
2018-04-16T13:30:15.400Z,101214.20
2018-04-16T13:32:41.135Z,101208.48
2018-04-16T13:35:06.885Z,101218.14
2018-04-16T13:37:32.623Z,101215.48
2018-04-16T13:39:58.373Z,101220.09
2018-04-16T13:42:24.115Z,101216.67
2018-04-16T13:44:49.869Z,101219.26
2018-04-16T13:47:15.604Z,101231.55
2018-04-16T13:49:41.372Z,101222.89
2018-04-16T13:52:07.108Z,101228.08
2018-04-16T13:54:32.853Z,101227.98
2018-04-16T13:56:58.593Z,101232.92
2018-04-16T13:59:24.347Z,101234.19
2018-04-16T14:01:50.092Z,101228.53
2018-04-16T14:04:15.836Z,101232.39
2018-04-16T14:06:41.579Z,101231.33
2018-04-16T14:09:07.321Z,101239.12
2018-04-16T14:11:33.069Z,101247.30
2018-04-16T14:13:58.806Z,101244.83
2018-04-16T14:16:24.575Z,101243.11
2018-04-16T14:18:50.315Z,101245.09
2018-04-16T14:21:16.064Z,101250.69
2018-04-16T14:23:41.800Z,101253.58
2018-04-16T14:26:07.553Z,101257.58
2018-04-16T14:28:33.308Z,101256.03
2018-04-16T14:30:59.069Z,101260.27
2018-04-16T14:33:24.806Z,101257.56
2018-04-16T14:35:50.568Z,101261.64
2018-04-16T14:38:16.304Z,101267.84
2018-04-16T14:40:42.064Z,101271.41
2018-04-16T14:43:07.804Z,101277.36
2018-04-16T14:45:33.560Z,101270.02
2018-04-16T14:47:59.304Z,101274.72
2018-04-16T14:50:25.036Z,101274.41
2018-04-16T14:52:50.771Z,101277.67
2018-04-16T14:55:16.530Z,101283.59
2018-04-16T14:57:42.264Z,101280.78
2018-04-16T15:00:08.015Z,101288.67
2018-04-16T15:02:33.763Z,101292.73
2018-04-16T15:04:59.496Z,101295.30
2018-04-16T15:07:25.232Z,101297.34
2018-04-16T15:09:50.960Z,101300.27
2018-04-16T15:12:16.700Z,101307.13
2018-04-16T15:14:42.447Z,101308.27
2018-04-16T15:17:08.189Z,101308.78
2018-04-16T15:19:33.944Z,101316.14
2018-04-16T15:21:59.693Z,101317.87
2018-04-16T15:24:25.450Z,101326.27
2018-04-16T15:26:51.210Z,101334.07
2018-04-16T15:29:16.947Z,101333.40
2018-04-16T15:31:42.691Z,101336.55
2018-04-16T15:34:08.456Z,101341.12
2018-04-16T15:36:34.596Z,101334.02
2018-04-16T15:39:00.344Z,101345.52
2018-04-16T15:41:26.084Z,101348.14
2018-04-16T15:43:51.837Z,101346.05
2018-04-16T15:46:17.589Z,101345.87
2018-04-16T15:48:43.337Z,101349.53
2018-04-16T15:51:09.141Z,101354.31
2018-04-16T15:53:34.882Z,101359.48
2018-04-16T15:56:00.639Z,101363.16
2018-04-16T15:58:26.387Z,101375.27
2018-04-16T16:00:52.144Z,101374.20
2018-04-16T16:03:17.892Z,101379.20
2018-04-16T16:05:43.631Z,101381.61
2018-04-16T16:08:09.389Z,101384.00
2018-04-16T16:10:35.132Z,101386.50
2018-04-16T16:13:00.872Z,101390.69
2018-04-16T16:15:26.604Z,101390.61
2018-04-16T16:17:52.355Z,101399.50
2018-04-16T16:20:18.088Z,101402.41
2018-04-16T16:22:43.836Z,101401.38
2018-04-16T16:25:09.590Z,101405.27
2018-04-16T16:27:35.351Z,101405.66
2018-04-16T16:30:01.081Z,101405.09
2018-04-16T16:32:26.825Z,101406.58
2018-04-16T16:34:52.604Z,101408.08
2018-04-16T16:37:18.312Z,101418.41
2018-04-16T16:39:44.076Z,101416.00
2018-04-16T16:42:09.837Z,101416.95
2018-04-16T16:44:35.592Z,101416.77
2018-04-16T16:47:01.346Z,101416.53
2018-04-16T16:49:27.096Z,101421.67
2018-04-16T16:51:52.860Z,101425.62
2018-04-16T16:54:18.611Z,101429.86
2018-04-16T16:56:44.328Z,101437.45
2018-04-16T16:59:10.069Z,101440.13
2018-04-16T17:01:35.803Z,101446.68
2018-04-16T17:04:01.541Z,101449.84
2018-04-16T17:06:27.285Z,101458.87
2018-04-16T17:08:53.045Z,101457.75
2018-04-16T17:11:18.806Z,101454.48
2018-04-16T17:13:44.593Z,101463.50
2018-04-16T17:16:10.284Z,101468.61
2018-04-16T17:18:36.033Z,101473.98
2018-04-16T17:21:01.783Z,101478.55
2018-04-16T17:23:27.576Z,101478.73
2018-04-16T17:25:53.356Z,101478.58
2018-04-16T17:28:19.102Z,101479.16
2018-04-16T17:30:44.838Z,101483.63
2018-04-16T17:33:10.588Z,101493.20
2018-04-16T17:35:36.341Z,101495.42
2018-04-16T17:38:02.082Z,101504.02
2018-04-16T17:40:27.812Z,101515.67
2018-04-16T17:42:53.552Z,101515.76
2018-04-16T17:45:19.295Z,101523.81
2018-04-16T17:47:45.042Z,101521.69
2018-04-16T17:50:10.792Z,101530.27
2018-04-16T17:52:36.557Z,101525.08
2018-04-16T17:55:02.438Z,101525.56
2018-04-16T17:57:28.205Z,101534.95
2018-04-16T17:59:53.948Z,101534.14
2018-04-16T18:02:19.690Z,101537.73
2018-04-16T18:04:45.416Z,101547.15
2018-04-16T18:07:11.181Z,101551.54
2018-04-16T18:09:36.922Z,101551.66
2018-04-16T18:12:02.763Z,101557.45
2018-04-16T18:14:28.509Z,101557.38
2018-04-16T18:16:54.255Z,101572.06
2018-04-16T18:19:20.001Z,101566.47
2018-04-16T18:21:45.741Z,101567.83
2018-04-16T18:24:11.488Z,101570.97
2018-04-16T18:26:37.242Z,101575.48
2018-04-16T18:29:02.993Z,101577.69
2018-04-16T18:31:28.738Z,101583.92
2018-04-16T18:33:54.521Z,101585.78
2018-04-16T18:36:20.339Z,101590.69
2018-04-16T18:38:46.080Z,101594.78
2018-04-16T18:41:11.810Z,101592.67
2018-04-16T18:43:37.544Z,101606.91
2018-04-16T18:46:03.288Z,101617.13
2018-04-16T18:48:29.051Z,101620.27
2018-04-16T18:50:54.792Z,101625.61
2018-04-16T18:53:20.524Z,101626.13
2018-04-16T18:55:46.256Z,101630.18
2018-04-16T18:58:12.022Z,101628.07
2018-04-16T19:00:37.761Z,101630.39
2018-04-16T19:03:03.500Z,101630.02
2018-04-16T19:05:29.237Z,101638.05
2018-04-16T19:07:54.979Z,101637.67
2018-04-16T19:10:20.712Z,101635.97
2018-04-16T19:12:46.459Z,101638.79
2018-04-16T19:15:12.221Z,101641.95
2018-04-16T19:17:44.081Z,101646.85
2018-04-16T19:20:09.954Z,101648.18
2018-04-16T19:22:35.992Z,101650.05
2018-04-16T19:25:01.782Z,101656.72
2018-04-16T19:27:33.613Z,101655.03
2018-04-16T19:29:59.354Z,101655.16
2018-04-16T19:32:25.199Z,101664.13
2018-04-16T19:34:57.359Z,101666.44
2018-04-16T19:37:23.191Z,101669.68
2018-04-16T19:39:49.052Z,101679.05
2018-04-16T19:42:21.006Z,101675.69
2018-04-16T19:44:46.903Z,101675.81
2018-04-16T19:47:12.674Z,101681.69
2018-04-16T19:49:44.613Z,101678.71
2018-04-16T19:52:10.349Z,101681.95
2018-04-16T19:54:36.100Z,101690.48
2018-04-16T19:57:08.180Z,101695.91
2018-04-16T19:59:34.137Z,101691.58
2018-04-16T20:02:06.204Z,101687.19
2018-04-16T20:04:32.081Z,101693.56
2018-04-16T20:06:57.981Z,101698.53
2018-04-16T20:09:23.789Z,101697.75
2018-04-16T20:11:49.524Z,101693.39
2018-04-16T20:14:15.284Z,101694.36
2018-04-16T20:16:41.041Z,101690.04
2018-04-16T20:19:06.806Z,101690.11
2018-04-16T20:21:32.956Z,101695.02
2018-04-16T20:23:59.911Z,101694.58
2018-04-16T20:26:26.133Z,101697.66
2018-04-16T20:28:52.138Z,101700.80
2018-04-16T20:31:18.123Z,101699.04
2018-04-16T20:33:43.909Z,101700.80
2018-04-16T20:36:09.656Z,101698.20
2018-04-16T20:38:37.653Z,101708.32
2018-04-16T20:41:03.853Z,101718.85
2018-04-16T20:43:29.903Z,101719.27
2018-04-16T20:45:56.235Z,101723.69
2018-04-16T20:48:22.041Z,101713.13
2018-04-16T20:50:48.045Z,101721.59
2018-04-16T20:53:14.092Z,101728.75
2018-04-16T20:55:40.054Z,101729.69
2018-04-16T20:58:05.832Z,101731.19
2018-04-16T21:00:31.585Z,101740.16
2018-04-16T21:02:57.670Z,101743.75
2018-04-16T21:05:23.653Z,101748.25
2018-04-16T21:07:49.397Z,101757.16
2018-04-16T21:10:15.460Z,101763.79
2018-04-16T21:12:41.662Z,101765.59
2018-04-16T21:15:07.833Z,101764.33
2018-04-16T21:17:33.851Z,101764.34
2018-04-16T21:19:59.620Z,101769.69
2018-04-16T21:22:25.368Z,101775.80
2018-04-16T21:24:51.111Z,101773.13
2018-04-16T21:27:16.855Z,101772.72
2018-04-16T21:29:43.001Z,101776.28
2018-04-16T21:32:08.773Z,101774.94
2018-04-16T21:34:34.665Z,101775.02
2018-04-16T21:37:00.804Z,101775.13
2018-04-16T21:39:26.611Z,101779.53
2018-04-16T21:41:52.447Z,101779.98
2018-04-16T21:44:18.215Z,101778.70
2018-04-16T21:46:43.977Z,101785.33
2018-04-16T21:49:09.730Z,101785.86
2018-04-16T21:51:35.489Z,101787.64
2018-04-16T21:54:01.228Z,101791.59
2018-04-16T21:56:26.992Z,101798.21
2018-04-16T21:58:52.729Z,101799.56
2018-04-16T22:01:18.480Z,101800.91
2018-04-16T22:03:44.220Z,101807.99
2018-04-16T22:06:09.976Z,101811.55
2018-04-16T22:08:35.768Z,101807.63
2018-04-16T22:11:01.473Z,101805.00
2018-04-16T22:13:27.294Z,101818.23
2018-04-16T22:15:53.037Z,101818.24
2018-04-16T22:18:18.775Z,101827.48
2018-04-16T22:20:44.523Z,101823.11
2018-04-16T22:23:10.269Z,101823.64
2018-04-16T22:25:36.028Z,101824.48
2018-04-16T22:28:01.769Z,101820.56
2018-04-16T22:30:27.540Z,101825.41
2018-04-16T22:32:53.284Z,101825.85
2018-04-16T22:35:19.042Z,101829.42
2018-04-16T22:37:44.790Z,101832.54
2018-04-16T22:40:10.538Z,101841.77
2018-04-16T22:42:36.290Z,101850.58
2018-04-16T22:45:02.063Z,101845.31
2018-04-16T22:47:27.804Z,101850.61
2018-04-16T22:49:53.556Z,101854.58
2018-04-16T22:52:19.325Z,101851.55
2018-04-16T22:54:45.057Z,101849.82
2018-04-16T22:57:10.800Z,101856.41
2018-04-16T22:59:36.548Z,101858.14
2018-04-16T23:02:02.328Z,101860.37
2018-04-16T23:04:28.107Z,101862.14
2018-04-16T23:06:53.853Z,101863.47
2018-04-16T23:09:19.586Z,101863.91
2018-04-16T23:11:45.360Z,101863.45
2018-04-16T23:14:11.088Z,101866.55
2018-04-16T23:16:36.828Z,101867.39
2018-04-16T23:19:02.611Z,101870.03
2018-04-16T23:21:28.372Z,101874.42
2018-04-16T23:23:54.124Z,101881.90
2018-04-16T23:26:19.884Z,101884.07
2018-04-16T23:28:45.620Z,101883.22
2018-04-16T23:31:11.349Z,101884.52
2018-04-16T23:33:37.073Z,101882.75
2018-04-16T23:36:02.837Z,101885.41
2018-04-16T23:38:28.573Z,101888.90
2018-04-16T23:40:54.325Z,101889.80
2018-04-16T23:43:20.044Z,101891.98
2018-04-16T23:45:45.785Z,101895.48
2018-04-16T23:48:17.507Z,101892.85
2018-04-16T23:50:43.261Z,101889.78
2018-04-16T23:53:08.997Z,101902.08
2018-04-16T23:55:34.744Z,101900.73
2018-04-16T23:58:00.487Z,101902.50
